createdAt,value
2018-06-03T00:01:38.009Z,99.90
2018-06-03T00:04:15.203Z,99.90
2018-06-03T00:06:46.583Z,99.90
2018-06-03T00:09:33.376Z,99.90
2018-06-03T00:12:19.957Z,99.90
2018-06-03T00:14:59.188Z,99.90
2018-06-03T00:17:31.549Z,99.90
2018-06-03T00:20:08.286Z,99.90
2018-06-03T00:22:56.925Z,99.90
2018-06-03T00:25:37.840Z,99.90
2018-06-03T00:28:09.521Z,99.90
2018-06-03T00:30:58.884Z,99.90
2018-06-03T00:41:10.303Z,99.90
2018-06-03T00:46:44.493Z,99.90
2018-06-03T00:49:18.595Z,99.90
2018-06-03T00:51:59.223Z,99.90
2018-06-03T00:55:17.372Z,99.90
2018-06-03T00:57:57.889Z,99.90
2018-06-03T01:00:31.382Z,99.90
2018-06-03T01:03:14.329Z,99.90
2018-06-03T01:05:51.591Z,99.90
2018-06-03T01:08:24.616Z,99.90
2018-06-03T01:11:03.658Z,99.90
2018-06-03T01:13:46.122Z,99.90
2018-06-03T01:16:17.028Z,99.90
2018-06-03T01:18:57.978Z,99.90
2018-06-03T01:21:34.665Z,99.90
2018-06-03T01:24:09.541Z,99.90
2018-06-03T01:26:43.566Z,99.90
2018-06-03T01:29:17.654Z,99.90
2018-06-03T01:31:51.943Z,99.90
2018-06-03T01:34:23.779Z,99.90
2018-06-03T01:36:58.421Z,99.90
2018-06-03T01:39:29.885Z,99.90
2018-06-03T01:42:00.354Z,99.90
2018-06-03T01:44:32.469Z,99.90
2018-06-03T01:47:10.457Z,99.90
2018-06-03T01:49:42.455Z,99.90
2018-06-03T01:52:13.533Z,99.90
2018-06-03T01:54:44.857Z,99.90
2018-06-03T01:57:16.607Z,99.90
2018-06-03T01:59:54.755Z,99.90
2018-06-03T02:02:29.062Z,99.90
2018-06-03T02:04:59.319Z,99.90
2018-06-03T02:07:29.552Z,99.90
2018-06-03T02:10:02.299Z,99.90
2018-06-03T02:12:36.890Z,99.90
2018-06-03T02:16:38.502Z,99.90
2018-06-03T02:19:10.291Z,99.90
2018-06-03T02:21:45.076Z,99.90
2018-06-03T02:24:17.350Z,99.90
2018-06-03T02:26:48.380Z,99.90
2018-06-03T02:29:19.589Z,99.90
2018-06-03T02:31:50.778Z,99.90
2018-06-03T02:34:26.489Z,99.90
2018-06-03T02:36:56.895Z,99.90
2018-06-03T02:39:27.152Z,99.90
2018-06-03T02:41:57.391Z,99.90
2018-06-03T02:44:29.943Z,99.90
2018-06-03T02:47:31.423Z,99.90
2018-06-03T02:50:06.824Z,99.90
2018-06-03T02:52:37.887Z,99.90
2018-06-03T02:55:07.974Z,99.90
2018-06-03T02:57:38.838Z,99.90
2018-06-03T03:00:10.670Z,99.90
2018-06-03T03:02:40.834Z,99.90
2018-06-03T03:05:10.988Z,99.90
2018-06-03T03:07:41.256Z,99.90
2018-06-03T03:10:11.510Z,99.90
2018-06-03T03:12:41.611Z,99.90
2018-06-03T03:15:11.415Z,99.90
2018-06-03T03:17:41.440Z,99.90
2018-06-03T03:20:13.992Z,99.90
2018-06-03T03:22:45.636Z,99.90
2018-06-03T03:25:16.243Z,99.90
2018-06-03T03:27:48.726Z,99.90
2018-06-03T03:30:20.140Z,99.90
2018-06-03T03:32:52.582Z,99.90
2018-06-03T03:35:22.960Z,99.90
2018-06-03T03:37:52.724Z,99.90
2018-06-03T03:40:22.560Z,99.90
2018-06-03T03:42:52.195Z,99.90
2018-06-03T03:45:22.425Z,99.90
2018-06-03T03:47:51.920Z,99.90
2018-06-03T03:50:23.063Z,99.90
2018-06-03T03:52:52.454Z,99.90
2018-06-03T03:55:22.285Z,99.90
2018-06-03T03:57:53.205Z,99.90
2018-06-03T04:00:22.591Z,99.90
2018-06-03T04:02:52.133Z,99.90
2018-06-03T04:05:22.208Z,99.90
2018-06-03T04:07:52.682Z,99.90
2018-06-03T04:10:22.119Z,99.90
2018-06-03T04:12:51.812Z,99.90
2018-06-03T04:15:21.912Z,99.90
2018-06-03T04:17:51.549Z,99.90
2018-06-03T04:20:21.009Z,99.90
2018-06-03T04:22:51.953Z,99.90
2018-06-03T04:25:21.551Z,99.90
2018-06-03T04:27:51.914Z,99.90
2018-06-03T04:30:22.977Z,99.90
2018-06-03T04:32:53.581Z,99.90
2018-06-03T04:35:24.327Z,99.90
2018-06-03T04:37:54.570Z,99.90
2018-06-03T04:40:26.774Z,99.90
2018-06-03T04:42:57.634Z,99.90
2018-06-03T04:45:29.724Z,99.90
2018-06-03T04:48:00.719Z,99.90
2018-06-03T04:50:30.459Z,99.90
2018-06-03T04:53:01.419Z,99.90
2018-06-03T04:55:32.986Z,99.90
2018-06-03T04:58:03.254Z,99.90
2018-06-03T05:00:33.305Z,99.90
2018-06-03T05:03:02.858Z,99.90
2018-06-03T05:05:32.483Z,99.90
2018-06-03T05:08:03.086Z,99.90
2018-06-03T05:10:32.656Z,99.90
2018-06-03T05:13:02.311Z,99.90
2018-06-03T05:15:31.952Z,99.90
2018-06-03T05:18:01.562Z,99.90
2018-06-03T05:20:31.340Z,99.90
2018-06-03T05:23:01.034Z,99.90
2018-06-03T05:25:30.402Z,99.90
2018-06-03T05:27:59.824Z,99.90
2018-06-03T05:30:29.419Z,99.90
2018-06-03T05:33:00.085Z,99.90
2018-06-03T05:35:30.368Z,99.90
2018-06-03T05:38:00.396Z,99.90
2018-06-03T05:40:30.193Z,99.90
2018-06-03T05:42:59.945Z,99.90
2018-06-03T05:45:32.135Z,99.90
2018-06-03T05:48:02.622Z,99.90
2018-06-03T05:50:32.390Z,99.90
2018-06-03T05:53:04.433Z,99.90
2018-06-03T05:55:35.024Z,99.90
2018-06-03T05:58:13.283Z,99.90
2018-06-03T06:00:43.105Z,99.90
2018-06-03T06:03:12.490Z,99.90
2018-06-03T06:05:42.510Z,99.90
2018-06-03T06:08:12.544Z,99.90
2018-06-03T06:10:43.243Z,99.90
2018-06-03T06:13:18.879Z,99.90
2018-06-03T06:16:09.682Z,99.90
2018-06-03T06:18:40.223Z,99.90
2018-06-03T06:21:13.299Z,99.90
2018-06-03T06:23:45.421Z,98.20
2018-06-03T06:26:15.375Z,98.20
2018-06-03T06:28:46.170Z,97.30
2018-06-03T06:31:16.267Z,97.60
2018-06-03T06:33:46.590Z,97.40
2018-06-03T06:36:26.645Z,97.40
2018-06-03T06:38:57.010Z,97.40
2018-06-03T06:41:26.751Z,97.00
2018-06-03T06:44:01.159Z,96.40
2018-06-03T06:46:31.310Z,96.30
2018-06-03T06:49:03.244Z,96.70
2018-06-03T06:51:33.498Z,96.80
2018-06-03T06:54:03.408Z,95.40
2018-06-03T06:56:35.180Z,94.30
2018-06-03T06:59:05.976Z,93.40
2018-06-03T07:01:36.352Z,90.30
2018-06-03T07:04:07.967Z,90.60
2018-06-03T07:06:38.081Z,92.30
2018-06-03T07:09:08.584Z,94.00
2018-06-03T07:11:39.538Z,94.60
2018-06-03T07:14:10.714Z,95.80
2018-06-03T07:16:42.186Z,97.00
2018-06-03T07:22:17.510Z,97.70
2018-06-03T07:24:54.485Z,98.10
2018-06-03T07:27:25.903Z,97.60
2018-06-03T07:29:56.421Z,97.20
2018-06-03T07:32:31.093Z,97.20
2018-06-03T07:35:14.596Z,96.50
2018-06-03T07:37:59.314Z,96.80
2018-06-03T07:40:30.909Z,96.40
2018-06-03T07:43:31.985Z,96.40
2018-06-03T07:46:38.677Z,95.90
2018-06-03T07:49:44.399Z,95.60
2018-06-03T07:52:17.104Z,96.30
2018-06-03T07:54:49.082Z,96.30
2018-06-03T07:57:45.610Z,96.40
2018-06-03T08:00:27.034Z,96.30
2018-06-03T08:03:03.867Z,95.50
2018-06-03T08:05:35.134Z,92.60
2018-06-03T08:08:06.515Z,92.60
2018-06-03T08:10:39.789Z,90.10
2018-06-03T08:13:11.430Z,84.30
2018-06-03T08:15:43.280Z,83.30
2018-06-03T08:18:32.452Z,83.20
2018-06-03T08:21:08.711Z,75.80
2018-06-03T08:23:40.459Z,75.70
2018-06-03T08:26:14.220Z,72.30
2018-06-03T08:28:46.099Z,76.20
2018-06-03T08:31:17.177Z,64.00
2018-06-03T08:33:48.017Z,65.00
2018-06-03T08:39:05.793Z,58.00
2018-06-03T08:41:36.735Z,57.90
2018-06-03T08:44:15.421Z,56.20
2018-06-03T08:46:52.578Z,61.50
2018-06-03T08:49:34.008Z,61.40
2018-06-03T08:52:18.387Z,65.90
2018-06-03T08:54:54.835Z,65.80
2018-06-03T08:57:34.841Z,57.00
2018-06-03T09:03:33.303Z,65.30
2018-06-03T09:06:10.999Z,67.50
2018-06-03T09:08:54.801Z,58.90
2018-06-03T09:11:26.665Z,59.80
2018-06-03T09:13:57.267Z,63.40
2018-06-03T09:16:28.854Z,59.00
2018-06-03T09:19:09.522Z,54.00
2018-06-03T09:21:45.465Z,47.60
2018-06-03T09:24:14.975Z,45.40
2018-06-03T09:26:45.179Z,48.90
2018-06-03T09:29:19.386Z,53.30
2018-06-03T09:31:50.862Z,56.50
2018-06-03T09:34:23.843Z,60.80
2018-06-03T09:36:56.537Z,60.80
2018-06-03T09:39:29.215Z,64.90
2018-06-03T09:42:07.625Z,63.20
2018-06-03T09:44:46.448Z,64.70
2018-06-03T09:47:17.219Z,64.40
2018-06-03T09:49:50.948Z,63.60
2018-06-03T09:52:27.199Z,65.10
2018-06-03T09:54:58.083Z,65.00
2018-06-03T09:57:28.908Z,65.90
2018-06-03T09:59:59.945Z,66.70
2018-06-03T10:03:11.056Z,70.00
2018-06-03T10:05:48.403Z,71.50
2018-06-03T10:08:26.298Z,71.20
2018-06-03T10:10:57.000Z,71.80
2018-06-03T10:13:31.021Z,69.20
2018-06-03T10:16:05.664Z,69.20
2018-06-03T10:21:19.358Z,71.50
2018-06-03T10:23:50.529Z,72.30
2018-06-03T10:26:22.133Z,72.20
2018-06-03T10:28:51.949Z,72.50
2018-06-03T10:31:36.407Z,73.30
2018-06-03T10:34:13.701Z,74.00
2018-06-03T10:36:46.304Z,72.80
2018-06-03T10:39:21.338Z,72.80
2018-06-03T10:41:52.380Z,73.50
2018-06-03T10:44:29.317Z,71.20
2018-06-03T10:47:12.807Z,71.10
2018-06-03T10:49:51.015Z,71.10
2018-06-03T10:52:27.334Z,70.20
2018-06-03T10:57:46.946Z,63.80
2018-06-03T11:00:22.165Z,63.80
2018-06-03T11:03:21.377Z,61.50
2018-06-03T11:06:14.396Z,62.50
2018-06-03T11:09:54.432Z,61.10
2018-06-03T11:35:49.949Z,53.00
2018-06-03T11:42:55.165Z,56.00
2018-06-03T11:45:33.669Z,58.00
2018-06-03T11:48:11.325Z,58.20
2018-06-03T11:50:50.588Z,57.40
2018-06-03T11:53:29.254Z,56.90
2018-06-03T11:57:05.030Z,58.30
2018-06-03T12:03:13.649Z,61.70
2018-06-03T12:05:51.011Z,61.70
2018-06-03T12:08:28.769Z,64.30
2018-06-03T12:11:09.777Z,56.00
2018-06-03T12:16:54.153Z,50.20
2018-06-03T12:19:37.500Z,48.50
2018-06-03T12:22:22.670Z,44.90
2018-06-03T12:38:44.422Z,48.70
2018-06-03T12:41:19.902Z,51.20
2018-06-03T12:44:00.269Z,54.70
2018-06-03T12:46:33.039Z,59.40
2018-06-03T12:49:07.535Z,59.10
2018-06-03T12:52:15.337Z,59.10
2018-06-03T12:58:38.375Z,51.80
2018-06-03T13:05:04.016Z,51.60
2018-06-03T13:07:52.633Z,51.50
2018-06-03T13:10:25.725Z,51.10
2018-06-03T13:12:57.567Z,53.30
2018-06-03T13:15:32.339Z,54.10
2018-06-03T13:18:07.714Z,53.40
2018-06-03T13:20:51.674Z,50.10
2018-06-03T13:23:28.184Z,48.90
2018-06-03T13:26:08.698Z,48.40
2018-06-03T13:31:23.720Z,49.70
2018-06-03T13:34:01.086Z,52.30
2018-06-03T13:36:31.784Z,52.50
2018-06-03T13:39:01.431Z,51.80
2018-06-03T13:41:34.269Z,53.50
2018-06-03T13:44:05.679Z,53.20
2018-06-03T13:46:36.625Z,53.40
2018-06-03T13:49:15.470Z,52.70
2018-06-03T13:51:53.240Z,54.90
2018-06-03T13:54:26.840Z,56.10
2018-06-03T13:56:56.868Z,55.80
2018-06-03T13:59:26.597Z,57.30
2018-06-03T14:02:02.127Z,56.10
2018-06-03T14:04:34.665Z,55.00
2018-06-03T14:07:04.825Z,54.30
2018-06-03T14:09:35.414Z,53.90
2018-06-03T14:12:20.074Z,53.90
2018-06-03T14:14:56.563Z,55.90
2018-06-03T14:17:29.253Z,57.00
2018-06-03T14:20:00.243Z,55.70
2018-06-03T14:22:37.722Z,55.00
2018-06-03T14:25:08.439Z,56.60
2018-06-03T14:27:38.317Z,57.40
2018-06-03T14:30:09.718Z,58.10
2018-06-03T14:32:39.174Z,58.40
2018-06-03T14:35:08.899Z,58.60
2018-06-03T14:37:38.583Z,60.00
2018-06-03T14:40:08.752Z,59.80
2018-06-03T14:42:39.112Z,59.70
2018-06-03T14:45:09.831Z,60.30
2018-06-03T14:47:39.508Z,61.00
2018-06-03T14:50:09.898Z,61.40
2018-06-03T14:52:39.957Z,62.20
2018-06-03T14:55:11.612Z,62.50
2018-06-03T14:57:50.316Z,63.50
2018-06-03T15:00:23.389Z,64.50
2018-06-03T15:02:53.199Z,66.40
2018-06-03T15:05:24.672Z,65.80
2018-06-03T15:07:54.633Z,64.40
2018-06-03T15:10:24.569Z,63.00
2018-06-03T15:12:55.702Z,62.10
2018-06-03T15:15:27.087Z,62.60
2018-06-03T15:17:58.490Z,63.70
2018-06-03T15:20:28.351Z,64.50
2018-06-03T15:23:12.721Z,64.00
2018-06-03T15:25:45.993Z,64.40
2018-06-03T15:28:30.365Z,64.00
2018-06-03T15:31:06.550Z,64.70
2018-06-03T15:33:43.616Z,65.50
2018-06-03T15:36:14.034Z,65.00
2018-06-03T15:38:54.732Z,65.50
2018-06-03T15:41:44.892Z,64.90
2018-06-03T15:44:25.691Z,65.00
2018-06-03T15:47:00.024Z,63.50
2018-06-03T15:49:30.125Z,64.70
2018-06-03T15:52:02.302Z,65.40
2018-06-03T15:54:31.840Z,65.70
2018-06-03T15:57:03.811Z,64.70
2018-06-03T15:59:33.476Z,64.20
2018-06-03T16:02:03.753Z,63.30
2018-06-03T16:04:33.133Z,63.40
2018-06-03T16:07:04.220Z,65.10
2018-06-03T16:09:33.962Z,66.40
2018-06-03T16:12:03.140Z,65.30
2018-06-03T16:14:32.541Z,65.70
2018-06-03T16:17:02.035Z,65.50
2018-06-03T16:19:35.277Z,65.80
2018-06-03T16:22:07.164Z,66.30
2018-06-03T16:24:36.564Z,66.30
2018-06-03T16:27:09.983Z,65.40
2018-06-03T16:30:25.163Z,65.90
2018-06-03T16:32:59.514Z,64.00
2018-06-03T16:35:30.275Z,64.60
2018-06-03T16:38:01.583Z,64.60
2018-06-03T16:40:32.081Z,64.50
2018-06-03T16:43:06.279Z,63.10
2018-06-03T16:45:43.270Z,61.90
2018-06-03T16:48:21.027Z,60.70
2018-06-03T16:51:16.035Z,60.30
2018-06-03T16:54:02.554Z,61.00
2018-06-03T16:56:45.936Z,59.50
2018-06-03T16:59:23.048Z,59.10
2018-06-03T17:02:04.697Z,59.00
2018-06-03T17:04:40.679Z,59.00
2018-06-03T17:07:36.671Z,57.30
2018-06-03T17:10:13.406Z,57.40
2018-06-03T17:12:47.034Z,59.40
2018-06-03T17:15:21.549Z,61.60
2018-06-03T17:18:54.820Z,63.00
2018-06-03T17:21:24.447Z,61.10
2018-06-03T17:23:53.936Z,61.50
2018-06-03T17:26:23.638Z,62.00
2018-06-03T17:28:53.063Z,63.40
2018-06-03T17:31:23.491Z,63.90
2018-06-03T17:33:52.915Z,65.10
2018-06-03T17:36:24.307Z,66.60
2018-06-03T17:38:55.440Z,68.20
2018-06-03T17:41:25.359Z,70.10
2018-06-03T17:43:55.134Z,71.00
2018-06-03T17:46:25.844Z,72.30
2018-06-03T17:49:03.264Z,72.60
2018-06-03T17:51:33.537Z,72.50
2018-06-03T17:54:08.977Z,72.50
2018-06-03T17:56:39.082Z,73.10
2018-06-03T17:59:09.651Z,72.00
2018-06-03T18:01:39.282Z,71.10
2018-06-03T18:04:09.851Z,71.80
2018-06-03T18:06:39.545Z,71.70
2018-06-03T18:09:09.582Z,70.70
2018-06-03T18:11:39.297Z,71.00
2018-06-03T18:14:13.310Z,71.30
2018-06-03T18:16:43.155Z,71.40
2018-06-03T18:19:13.533Z,70.80
2018-06-03T18:21:43.692Z,71.90
2018-06-03T18:24:14.202Z,73.20
2018-06-03T18:26:44.042Z,74.70
2018-06-03T18:29:14.955Z,75.70
2018-06-03T18:31:44.691Z,76.50
2018-06-03T18:34:14.325Z,77.20
2018-06-03T18:36:48.578Z,77.70
2018-06-03T18:39:21.548Z,78.20
2018-06-03T18:41:51.232Z,78.40
2018-06-03T18:44:29.171Z,78.50
2018-06-03T18:46:58.587Z,78.70
2018-06-03T18:49:43.389Z,78.80
2018-06-03T18:52:13.332Z,78.90
2018-06-03T18:54:45.204Z,78.50
2018-06-03T18:57:30.369Z,78.80
2018-06-03T19:02:49.031Z,79.00
2018-06-03T19:05:30.810Z,79.60
2018-06-03T19:08:03.044Z,79.60
2018-06-03T19:10:46.714Z,79.80
2018-06-03T19:13:27.357Z,79.50
2018-06-03T19:15:58.578Z,79.70
2018-06-03T19:18:28.726Z,79.60
2018-06-03T19:21:00.853Z,79.90
2018-06-03T19:23:31.831Z,80.00
2018-06-03T19:26:03.779Z,80.10
2018-06-03T19:28:34.816Z,79.80
2018-06-03T19:31:13.723Z,80.50
2018-06-03T19:34:01.475Z,80.70
2018-06-03T19:36:38.022Z,80.80
2018-06-03T19:42:17.908Z,81.20
2018-06-03T19:44:57.614Z,81.10
2018-06-03T19:47:28.053Z,81.10
2018-06-03T19:49:57.833Z,81.00
2018-06-03T19:52:33.975Z,81.40
2018-06-03T19:57:59.969Z,80.50
2018-06-03T20:03:08.990Z,79.90
2018-06-03T20:08:08.018Z,81.40
2018-06-03T20:10:39.574Z,81.00
2018-06-03T20:13:22.987Z,81.30
2018-06-03T20:15:56.969Z,82.10
2018-06-03T20:18:49.782Z,82.80
2018-06-03T20:21:46.279Z,82.10
2018-06-03T20:24:49.856Z,82.80
2018-06-03T20:27:36.220Z,83.10
2018-06-03T20:30:22.257Z,83.50
2018-06-03T20:32:58.891Z,83.70
2018-06-03T20:35:33.835Z,83.80
2018-06-03T20:38:11.330Z,84.00
2018-06-03T20:40:42.079Z,84.30
2018-06-03T20:43:16.624Z,84.40
2018-06-03T20:45:46.431Z,84.60
2018-06-03T20:48:16.049Z,85.00
2018-06-03T20:50:48.914Z,85.40
2018-06-03T20:53:19.398Z,85.30
2018-06-03T20:55:48.993Z,85.90
2018-06-03T20:58:18.370Z,85.80
2018-06-03T21:00:52.543Z,85.90
2018-06-03T21:13:42.004Z,85.30
2018-06-03T21:16:13.005Z,85.90
2018-06-03T21:18:42.522Z,86.80
2018-06-03T21:21:19.009Z,87.30
2018-06-03T21:23:51.680Z,87.80
2018-06-03T21:26:24.859Z,88.60
2018-06-03T21:28:55.380Z,89.40
2018-06-03T21:31:31.606Z,89.70
2018-06-03T21:34:13.796Z,90.20
2018-06-03T21:36:45.614Z,90.50
2018-06-03T21:39:25.170Z,90.80
2018-06-03T21:41:55.753Z,91.10
2018-06-03T21:44:28.807Z,91.20
2018-06-03T21:46:58.858Z,91.60
2018-06-03T21:49:28.883Z,91.70
2018-06-03T21:52:00.352Z,92.00
2018-06-03T21:54:32.319Z,92.20
2018-06-03T21:57:14.589Z,92.60
2018-06-03T21:59:48.613Z,92.80
2018-06-03T22:02:18.768Z,93.00
2018-06-03T22:04:48.785Z,92.40
2018-06-03T22:12:38.136Z,93.50
2018-06-03T22:15:13.685Z,93.90
2018-06-03T22:17:52.053Z,94.00
2018-06-03T22:20:25.726Z,94.20
2018-06-03T22:23:06.760Z,94.40
2018-06-03T22:25:36.982Z,94.70
2018-06-03T22:28:13.741Z,94.90
2018-06-03T22:30:45.672Z,95.10
2018-06-03T22:33:15.042Z,95.10
2018-06-03T22:35:44.270Z,94.10
2018-06-03T22:38:15.551Z,95.60
2018-06-03T22:40:46.557Z,95.80
2018-06-03T22:43:17.800Z,95.80
2018-06-03T22:45:47.210Z,95.60
2018-06-03T22:48:21.754Z,96.30
2018-06-03T22:50:51.154Z,96.40
2018-06-03T22:53:20.423Z,96.60
2018-06-03T22:55:49.724Z,96.70
2018-06-03T22:58:19.181Z,96.80
2018-06-03T23:00:50.948Z,96.90
2018-06-03T23:05:54.335Z,97.20
2018-06-03T23:08:24.680Z,97.30
2018-06-03T23:10:54.121Z,97.30
2018-06-03T23:13:23.713Z,97.40
2018-06-03T23:15:53.701Z,97.40
2018-06-03T23:18:25.007Z,97.40
2018-06-03T23:21:00.875Z,97.50
2018-06-03T23:23:30.354Z,97.60
2018-06-03T23:25:59.768Z,97.50
2018-06-03T23:31:09.974Z,97.70
2018-06-03T23:33:39.523Z,97.80
2018-06-03T23:36:08.819Z,98.10
2018-06-03T23:38:38.095Z,98.30
2018-06-03T23:41:07.533Z,98.40
2018-06-03T23:43:37.197Z,98.70
2018-06-03T23:46:06.523Z,98.70
2018-06-03T23:48:35.817Z,98.70
2018-06-03T23:51:17.416Z,98.80
2018-06-03T23:53:47.746Z,98.50
2018-06-03T23:56:22.497Z,98.80
